Time;durP1;ratioP1;P1;durP2;ratioP2;P2;SDS_P1;SDS_P2;PMS_P1;PMS_P2;Temp;Humidity;BMP_temperature;BMP_pressure;BME280_temperature;BME280_humidity;BME280_pressure;Samples;Min_cycle;Max_cycle;Signal;HPM_P1;HPM_P2
2022/05/12 00:00:09;;;;;;;8.20;6.18;;;20.70;99.90;;;;;;4990094;28;20391;-63
2022/05/12 00:02:36;;;;;;;8.50;6.60;;;20.60;99.90;;;;;;4989056;28;20883;-63
2022/05/12 00:05:03;;;;;;;7.85;6.60;;;20.60;99.90;;;;;;4989817;28;20386;-63
2022/05/12 00:07:29;;;;;;;8.10;6.30;;;20.50;99.90;;;;;;4971292;28;20690;-63
2022/05/12 00:09:55;;;;;;;9.50;6.93;;;20.40;99.90;;;;;;4990073;28;20445;-64
2022/05/12 00:12:22;;;;;;;9.40;6.65;;;20.30;99.90;;;;;;4989886;28;20430;-63
2022/05/12 00:14:48;;;;;;;10.48;6.45;;;20.30;99.90;;;;;;4989180;28;20391;-63
2022/05/12 00:17:13;;;;;;;9.50;6.60;;;20.20;99.90;;;;;;4990289;28;20427;-63
2022/05/12 00:19:39;;;;;;;9.00;6.67;;;20.10;99.90;;;;;;4989320;28;20391;-63
2022/05/12 00:22:04;;;;;;;8.20;6.40;;;20.10;99.90;;;;;;4989643;28;20418;-62
2022/05/12 00:24:30;;;;;;;9.45;6.53;;;20.10;99.90;;;;;;4988939;28;20418;-63
2022/05/12 00:26:56;;;;;;;8.40;6.97;;;20.00;99.90;;;;;;4989617;28;20398;-63
2022/05/12 00:29:22;;;;;;;8.33;5.97;;;19.90;99.90;;;;;;4993016;28;20418;-58
2022/05/12 00:31:48;;;;;;;9.07;6.18;;;19.70;99.90;;;;;;4992482;28;20413;-63
2022/05/12 00:34:17;;;;;;;8.80;6.40;;;19.80;99.90;;;;;;4992929;28;20461;-60
2022/05/12 00:36:43;;;;;;;8.52;6.10;;;19.80;99.90;;;;;;4992558;28;20390;-62
2022/05/12 00:39:09;;;;;;;8.20;6.00;;;19.70;99.90;;;;;;4993375;28;20510;-62
2022/05/12 00:41:35;;;;;;;9.60;6.40;;;19.80;99.90;;;;;;4991987;28;20949;-63
2022/05/12 00:44:05;;;;;;;8.75;6.10;;;19.80;99.90;;;;;;4992935;28;20386;-58
2022/05/12 00:46:35;;;;;;;9.60;6.60;;;19.80;99.90;;;;;;4992588;28;20414;-63
2022/05/12 00:49:27;;;;;;;7.90;5.93;;;19.80;99.90;;;;;;4992930;28;20906;-63
2022/05/12 00:52:08;;;;;;;9.25;6.63;;;19.70;99.90;;;;;;4988720;28;20410;-63
2022/05/12 00:54:41;;;;;;;8.60;6.00;;;19.80;99.90;;;;;;4992202;28;20395;-63
2022/05/12 00:57:11;;;;;;;9.65;6.47;;;19.80;99.90;;;;;;4992525;28;20378;-63
2022/05/12 00:59:36;;;;;;;8.60;6.00;;;19.70;99.90;;;;;;4991883;28;20394;-63
2022/05/12 01:02:07;;;;;;;8.73;6.33;;;19.70;99.90;;;;;;4993044;28;20731;-63
2022/05/12 01:04:33;;;;;;;8.10;6.60;;;19.80;99.90;;;;;;4992120;28;20462;-63
2022/05/12 01:06:59;;;;;;;7.40;6.50;;;19.70;99.90;;;;;;4992554;28;20538;-62
2022/05/12 01:09:27;;;;;;;9.10;6.50;;;19.70;99.90;;;;;;4992476;28;20524;-56
2022/05/12 01:11:52;;;;;;;7.47;5.85;;;19.80;99.90;;;;;;4992294;28;20386;-63
2022/05/12 01:14:18;;;;;;;8.90;5.90;;;19.80;99.90;;;;;;4992675;28;20732;-63
2022/05/12 01:16:56;;;;;;;8.50;7.18;;;19.90;99.90;;;;;;4992010;28;20907;-63
2022/05/12 01:19:24;;;;;;;9.10;6.45;;;19.90;99.90;;;;;;4992462;28;20403;-63
2022/05/12 01:21:51;;;;;;;10.38;6.43;;;20.00;99.90;;;;;;4991514;28;20788;-63
2022/05/12 01:24:20;;;;;;;9.60;6.90;;;20.00;99.90;;;;;;4992204;28;20469;-63
2022/05/12 01:26:47;;;;;;;8.65;6.10;;;20.00;99.90;;;;;;4991584;28;20577;-64
2022/05/12 01:29:13;;;;;;;8.95;6.00;;;20.00;99.90;;;;;;4992348;28;20513;-63
2022/05/12 01:31:40;;;;;;;9.30;6.10;;;20.10;99.90;;;;;;4991303;28;20482;-63
2022/05/12 01:34:08;;;;;;;8.88;6.20;;;20.10;99.90;;;;;;4992329;28;20397;-60
2022/05/12 01:36:35;;;;;;;8.23;5.80;;;20.20;99.90;;;;;;4991545;28;20857;-63
2022/05/12 01:39:01;;;;;;;8.43;5.72;;;20.30;99.90;;;;;;4991616;28;20517;-64
2022/05/12 01:41:27;;;;;;;9.13;5.80;;;20.40;99.90;;;;;;4974083;28;20406;-56
2022/05/12 01:43:53;;;;;;;9.80;5.60;;;20.20;99.90;;;;;;4991708;28;20390;-64
2022/05/12 01:46:18;;;;;;;9.27;6.20;;;20.50;99.90;;;;;;4992075;28;20818;-64
2022/05/12 01:48:44;;;;;;;8.40;5.70;;;20.60;99.90;;;;;;4991236;28;20414;-64
2022/05/12 01:51:10;;;;;;;8.67;5.83;;;20.60;99.90;;;;;;4991649;28;20386;-64
2022/05/12 01:53:37;;;;;;;9.85;5.85;;;20.60;99.90;;;;;;4991047;28;20379;-64
2022/05/12 01:56:04;;;;;;;8.40;5.40;;;20.70;99.90;;;;;;4992345;28;20781;-64
2022/05/12 01:58:30;;;;;;;8.38;5.10;;;20.70;99.90;;;;;;4991040;28;20391;-63
2022/05/12 02:00:56;;;;;;;9.90;5.20;;;20.70;99.90;;;;;;4992030;28;20386;-63
2022/05/12 02:03:22;;;;;;;7.40;5.10;;;20.70;99.90;;;;;;4991828;28;20848;-65
2022/05/12 02:05:47;;;;;;;10.55;5.68;;;20.70;99.90;;;;;;4991290;28;20385;-64
2022/05/12 02:08:15;;;;;;;8.90;5.30;;;20.60;99.90;;;;;;4991304;28;20565;-64
2022/05/12 02:10:42;;;;;;;8.35;5.53;;;20.60;99.90;;;;;;4991148;28;20398;-65
2022/05/12 02:13:11;;;;;;;12.73;5.50;;;20.60;99.90;;;;;;4991349;28;20482;-64
2022/05/12 02:15:38;;;;;;;8.90;5.53;;;20.60;99.90;;;;;;4990909;28;20389;-65
2022/05/12 02:18:05;;;;;;;9.60;4.60;;;20.50;99.90;;;;;;4991606;28;20401;-64
2022/05/12 02:20:31;;;;;;;9.17;5.37;;;20.50;99.90;;;;;;4990788;28;20444;-63
2022/05/12 02:22:56;;;;;;;9.13;5.40;;;20.40;99.90;;;;;;4991436;28;20410;-63
2022/05/12 02:25:22;;;;;;;9.70;5.10;;;20.30;99.90;;;;;;4973989;28;20402;-64
2022/05/12 02:27:50;;;;;;;7.60;4.80;;;20.10;99.90;;;;;;4972531;28;20386;-63
2022/05/12 02:30:25;;;;;;;8.07;5.22;;;20.00;99.90;;;;;;4991163;28;20425;-64
2022/05/12 02:32:51;;;;;;;7.80;4.90;;;20.00;99.90;;;;;;4990693;28;20390;-64
2022/05/12 02:35:18;;;;;;;9.27;5.45;;;19.90;99.90;;;;;;4991311;28;20397;-64
2022/05/12 02:37:44;;;;;;;8.07;5.10;;;19.80;99.90;;;;;;4990355;28;21186;-64
2022/05/12 02:40:12;;;;;;;8.60;5.00;;;19.70;99.90;;;;;;4991171;28;20419;-64
2022/05/12 02:42:38;;;;;;;8.97;5.00;;;19.70;99.90;;;;;;4990236;28;20395;-64
2022/05/12 02:45:05;;;;;;;8.85;4.90;;;19.80;99.90;;;;;;4991115;28;20768;-63
2022/05/12 02:47:31;;;;;;;7.88;4.70;;;19.80;99.90;;;;;;4990152;28;20379;-57
2022/05/12 02:49:57;;;;;;;7.93;4.90;;;19.70;99.90;;;;;;4990882;28;20498;-64
2022/05/12 02:52:22;;;;;;;7.95;4.43;;;19.70;99.90;;;;;;4989986;28;20868;-64
2022/05/12 02:54:48;;;;;;;9.95;4.57;;;19.70;99.90;;;;;;4989838;28;20444;-63
2022/05/12 02:57:14;;;;;;;10.43;4.77;;;19.70;99.90;;;;;;4990865;28;20384;-64
2022/05/12 02:59:39;;;;;;;8.27;4.13;;;19.60;99.90;;;;;;4989820;28;20837;-64
2022/05/12 03:02:05;;;;;;;8.40;4.00;;;19.60;99.90;;;;;;4990658;28;20387;-59
2022/05/12 03:04:31;;;;;;;10.10;4.20;;;19.60;99.90;;;;;;4989976;28;20446;-62
2022/05/12 03:06:57;;;;;;;9.00;4.10;;;19.50;99.90;;;;;;4990672;28;20780;-64
2022/05/12 03:09:22;;;;;;;7.05;3.65;;;19.50;99.90;;;;;;4990699;28;20426;-64
2022/05/12 03:11:48;;;;;;;10.15;4.28;;;19.50;99.90;;;;;;4989579;28;20400;-63
2022/05/12 03:14:14;;;;;;;7.30;3.60;;;19.60;99.90;;;;;;4990038;28;20879;-63
2022/05/12 03:16:40;;;;;;;7.35;3.47;;;19.40;99.90;;;;;;4989681;28;20477;-64
2022/05/12 03:19:06;;;;;;;7.17;2.97;;;19.40;99.90;;;;;;4990600;28;20533;-64
2022/05/12 03:21:31;;;;;;;7.35;3.33;;;19.50;99.90;;;;;;4989624;28;20391;-62
2022/05/12 03:23:57;;;;;;;7.30;3.20;;;19.60;99.90;;;;;;4990455;28;20387;-64
2022/05/12 03:26:23;;;;;;;7.17;2.67;;;19.60;99.90;;;;;;4990404;28;20388;-63
2022/05/12 03:28:49;;;;;;;6.72;3.30;;;19.60;99.90;;;;;;4989374;28;20448;-64
2022/05/12 03:31:14;;;;;;;7.00;3.13;;;19.70;99.90;;;;;;4990509;28;20639;-64
2022/05/12 03:33:40;;;;;;;8.63;3.50;;;19.60;99.90;;;;;;4989296;28;20457;-63
2022/05/12 03:36:07;;;;;;;9.57;3.20;;;19.60;99.90;;;;;;4990337;28;20863;-63
2022/05/12 03:38:33;;;;;;;7.22;3.38;;;19.60;99.90;;;;;;4989754;28;20429;-64
2022/05/12 03:40:58;;;;;;;7.60;3.10;;;19.50;99.90;;;;;;4990711;28;20970;-64
2022/05/12 03:46:09;;;;;;;6.40;3.00;;;19.50;99.90;;;;;;5008100;28;20399;-63
2022/05/12 03:48:37;;;;;;;6.45;3.00;;;19.40;99.90;;;;;;5006918;28;20428;-63
2022/05/12 03:51:03;;;;;;;6.47;3.07;;;19.30;99.90;;;;;;4993265;28;20816;-64
2022/05/12 03:53:30;;;;;;;6.90;2.90;;;19.30;99.90;;;;;;4990361;28;20402;-56
2022/05/12 03:55:56;;;;;;;9.25;3.08;;;19.20;99.90;;;;;;5009426;28;20428;-64
2022/05/12 03:58:22;;;;;;;6.30;3.00;;;19.20;99.90;;;;;;5009074;28;20483;-63
2022/05/12 04:00:50;;;;;;;6.10;3.20;;;19.20;99.90;;;;;;5004303;28;20524;-63
2022/05/12 04:03:16;;;;;;;6.85;2.85;;;19.10;99.90;;;;;;4994500;28;20411;-62
2022/05/12 04:05:42;;;;;;;6.00;2.90;;;19.10;99.90;;;;;;5001410;28;20523;-64
2022/05/12 04:08:08;;;;;;;7.00;2.63;;;19.10;99.90;;;;;;5013076;28;20397;-64
2022/05/12 04:10:34;;;;;;;6.40;2.80;;;19.20;99.90;;;;;;5011265;28;20771;-64
2022/05/12 04:12:59;;;;;;;9.40;3.20;;;19.20;99.90;;;;;;5003268;28;20468;-63
2022/05/12 04:15:25;;;;;;;8.67;2.67;;;19.20;99.90;;;;;;4993317;28;20386;-63
2022/05/12 04:17:59;;;;;;;7.00;3.00;;;19.10;99.90;;;;;;5001761;28;20866;-64
2022/05/12 04:20:26;;;;;;;6.63;2.88;;;19.20;99.90;;;;;;5013383;28;20380;-63
2022/05/12 04:22:53;;;;;;;7.43;2.95;;;19.20;99.90;;;;;;5010949;28;20609;-63
2022/05/12 04:25:19;;;;;;;7.70;3.10;;;19.20;99.90;;;;;;5007225;28;20477;-63
2022/05/12 04:27:44;;;;;;;11.10;3.30;;;19.20;99.90;;;;;;4992839;28;20944;-64
2022/05/12 04:30:13;;;;;;;6.07;2.60;;;19.10;99.90;;;;;;4994876;28;20413;-64
2022/05/12 04:32:39;;;;;;;7.43;2.70;;;19.00;99.90;;;;;;4992436;28;20395;-63
2022/05/12 04:35:13;;;;;;;6.32;2.85;;;19.10;99.90;;;;;;4994578;28;20851;-61
2022/05/12 04:37:46;;;;;;;6.70;3.20;;;19.10;99.90;;;;;;4992863;28;20409;-63
2022/05/12 04:40:13;;;;;;;8.40;2.90;;;19.10;99.90;;;;;;4994170;28;20407;-64
2022/05/12 04:42:39;;;;;;;6.33;2.90;;;19.10;99.90;;;;;;5010153;28;20405;-63
2022/05/12 04:45:06;;;;;;;6.20;2.90;;;19.20;99.90;;;;;;5006125;28;20399;-63
2022/05/12 04:47:36;;;;;;;7.50;2.80;;;19.30;99.90;;;;;;4998793;28;20923;-57
2022/05/12 04:50:04;;;;;;;7.57;3.05;;;19.30;99.90;;;;;;4973797;28;20416;-64
2022/05/12 04:52:30;;;;;;;7.70;2.90;;;19.30;99.90;;;;;;4973561;28;20455;-56
2022/05/12 04:54:56;;;;;;;8.23;2.83;;;19.30;99.90;;;;;;4983996;28;20843;-63
2022/05/12 04:57:22;;;;;;;8.60;2.78;;;19.70;99.90;;;;;;4992879;28;20382;-63
2022/05/12 04:59:49;;;;;;;7.10;2.80;;;20.40;99.90;;;;;;4992362;28;20390;-66
2022/05/12 05:02:15;;;;;;;6.28;2.60;;;21.00;99.90;;;;;;4993161;28;20845;-66
2022/05/12 05:04:41;;;;;;;6.00;2.70;;;21.70;99.90;;;;;;4993192;28;20551;-65
2022/05/12 05:07:08;;;;;;;6.18;2.70;;;21.90;99.90;;;;;;4992971;28;20394;-66
2022/05/12 05:09:34;;;;;;;7.80;2.60;;;21.50;99.90;;;;;;4992947;28;20427;-63
2022/05/12 05:12:00;;;;;;;6.20;2.50;;;21.80;99.90;;;;;;5003468;28;20395;-64
2022/05/12 05:14:25;;;;;;;7.60;2.50;;;21.80;99.90;;;;;;4991887;28;20774;-64
2022/05/12 05:16:52;;;;;;;8.00;2.87;;;21.90;99.90;;;;;;4992845;28;20402;-63
2022/05/12 05:19:17;;;;;;;7.80;3.03;;;22.70;99.90;;;;;;4993455;28;20447;-62
2022/05/12 05:21:43;;;;;;;7.70;2.63;;;22.30;99.90;;;;;;4991933;28;20422;-66
2022/05/12 05:24:09;;;;;;;7.43;2.70;;;21.90;99.90;;;;;;4993917;28;20466;-66
2022/05/12 05:26:35;;;;;;;6.80;2.53;;;21.90;99.90;;;;;;4999982;28;20395;-60
2022/05/12 05:29:01;;;;;;;9.48;2.95;;;22.20;99.90;;;;;;5004390;28;20416;-63
2022/05/12 05:31:27;;;;;;;7.38;2.78;;;21.60;99.90;;;;;;4993972;28;20437;-64
2022/05/12 05:33:53;;;;;;;7.07;2.60;;;21.00;99.90;;;;;;4991268;28;20386;-62
2022/05/12 05:36:19;;;;;;;7.40;2.50;;;20.50;99.90;;;;;;4991869;28;20407;-65
2022/05/12 05:38:45;;;;;;;6.43;2.60;;;20.30;99.90;;;;;;4991428;28;20399;-63
2022/05/12 05:41:11;;;;;;;6.65;2.30;;;20.20;99.90;;;;;;4992067;28;20395;-61
2022/05/12 05:43:38;;;;;;;8.95;2.70;;;20.40;99.90;;;;;;4991517;28;20743;-63
2022/05/12 05:46:04;;;;;;;8.43;2.40;;;20.10;99.90;;;;;;4992238;28;20394;-63
2022/05/12 05:48:30;;;;;;;6.00;2.28;;;20.10;99.90;;;;;;4991903;28;20776;-56
2022/05/12 05:53:40;;;;;;;7.60;2.40;;;20.00;99.90;;;;;;4991122;28;20382;-63
2022/05/12 05:56:11;;;;;;;7.27;2.50;;;19.80;99.90;;;;;;4992097;28;20391;-63
2022/05/12 05:58:39;;;;;;;5.70;2.30;;;19.60;99.90;;;;;;4991359;28;20480;-63
2022/05/12 06:01:05;;;;;;;11.18;2.50;;;19.80;99.90;;;;;;4992099;28;20391;-61
2022/05/12 06:03:30;;;;;;;6.70;2.80;;;19.90;99.90;;;;;;4988984;28;20762;-57
2022/05/12 06:05:57;;;;;;;5.33;2.10;;;20.00;99.90;;;;;;4986391;28;20485;-62
2022/05/12 06:08:23;;;;;;;5.72;2.10;;;20.70;99.90;;;;;;4996985;28;20476;-63
2022/05/12 06:10:49;;;;;;;8.80;2.40;;;21.90;99.90;;;;;;4994659;28;20884;-63
2022/05/12 06:13:15;;;;;;;7.40;2.30;;;22.40;99.90;;;;;;4991692;28;20466;-62
2022/05/12 06:15:41;;;;;;;12.57;2.80;;;22.10;99.90;;;;;;4990710;28;20740;-63
2022/05/12 06:18:09;;;;;;;7.43;2.20;;;22.20;99.90;;;;;;4991412;28;20387;-62
2022/05/12 06:20:34;;;;;;;8.10;2.30;;;22.90;99.90;;;;;;4990230;28;20395;-59
2022/05/12 06:23:00;;;;;;;6.93;2.27;;;23.80;99.90;;;;;;4990049;28;20391;-60
2022/05/12 06:25:26;;;;;;;7.80;2.20;;;24.50;99.90;;;;;;4989772;28;20394;-60
2022/05/12 06:27:51;;;;;;;8.83;2.90;;;25.30;99.90;;;;;;4990424;28;20928;-63
2022/05/12 06:30:19;;;;;;;10.50;3.20;;;26.10;99.90;;;;;;4989975;28;21306;-63
2022/05/12 06:32:45;;;;;;;6.60;2.93;;;26.30;99.90;;;;;;4989866;28;20386;-63
2022/05/12 06:35:13;;;;;;;9.00;2.60;;;26.00;99.90;;;;;;4990609;28;20417;-63
2022/05/12 06:37:39;;;;;;;7.05;2.40;;;25.70;99.90;;;;;;4989409;28;20495;-64
2022/05/12 06:40:06;;;;;;;5.90;2.10;;;25.00;99.90;;;;;;5001440;28;20393;-60
2022/05/12 06:42:31;;;;;;;7.22;2.30;;;24.50;99.90;;;;;;5009697;28;20383;-59
2022/05/12 06:44:58;;;;;;;11.30;2.20;;;24.00;99.90;;;;;;5009419;28;20472;-60
2022/05/12 06:47:24;;;;;;;8.02;2.60;;;23.70;99.90;;;;;;4991694;28;20416;-60
2022/05/12 06:49:51;;;;;;;6.53;2.60;;;23.40;99.90;;;;;;5008788;28;20413;-61
2022/05/12 06:52:17;;;;;;;7.30;2.70;;;23.20;99.90;;;;;;5009695;28;20468;-62
2022/05/12 06:54:44;;;;;;;8.00;2.40;;;23.20;99.90;;;;;;4989193;28;20395;-63
2022/05/12 06:57:11;;;;;;;6.95;2.30;;;23.10;99.90;;;;;;4989736;28;20378;-63
2022/05/12 06:59:40;;;;;;;6.53;2.85;;;23.20;99.90;;;;;;4989033;28;20466;-63
2022/05/12 07:02:07;;;;;;;6.15;2.30;;;23.30;99.90;;;;;;4989479;28;20742;-62
2022/05/12 07:04:33;;;;;;;8.00;2.50;;;23.30;99.90;;;;;;4989726;28;20422;-58
2022/05/12 07:06:59;;;;;;;7.45;2.30;;;23.70;99.90;;;;;;4989942;28;20783;-63
2022/05/12 07:09:25;;;;;;;7.70;2.40;;;24.10;99.90;;;;;;4989975;28;20569;-63
2022/05/12 07:11:52;;;;;;;8.35;2.42;;;23.90;99.90;;;;;;4989330;28;20464;-63
2022/05/12 07:14:17;;;;;;;6.50;2.20;;;23.20;99.90;;;;;;4978925;28;21107;-63
2022/05/12 07:16:46;;;;;;;6.90;2.70;;;22.30;99.90;;;;;;4969964;28;20416;-63
2022/05/12 07:19:15;;;;;;;7.33;2.20;;;21.90;99.90;;;;;;4970106;28;20462;-63
2022/05/12 07:27:16;;;;;;;7.85;2.05;;;21.10;99.90;;;;;;4990082;28;20411;-62
2022/05/12 07:29:42;;;;;;;6.10;2.70;;;21.00;99.90;;;;;;4989343;28;20409;-63
2022/05/12 07:32:08;;;;;;;6.32;2.20;;;21.00;99.90;;;;;;4989990;28;20390;-62
2022/05/12 07:34:34;;;;;;;6.60;2.40;;;20.80;99.90;;;;;;4989786;28;20389;-58
2022/05/12 07:37:00;;;;;;;10.98;2.60;;;20.70;99.90;;;;;;4989090;28;20410;-62
2022/05/12 07:39:29;;;;;;;6.10;2.70;;;20.80;99.90;;;;;;4989189;28;20432;-60
2022/05/12 07:42:00;;;;;;;7.85;2.85;;;21.10;99.90;;;;;;4988452;28;20394;-63
2022/05/12 07:44:31;;;;;;;6.28;2.30;;;21.40;99.90;;;;;;4989549;28;20848;-63
2022/05/12 07:47:05;;;;;;;6.10;2.60;;;21.60;99.90;;;;;;4989625;28;20374;-62
2022/05/12 07:49:35;;;;;;;6.63;2.70;;;21.70;99.90;;;;;;4989488;28;20841;-63
2022/05/12 07:52:01;;;;;;;6.70;2.00;;;21.70;99.90;;;;;;4989825;28;20443;-63
2022/05/12 07:54:27;;;;;;;6.15;2.40;;;21.80;99.90;;;;;;4989459;28;20393;-62
2022/05/12 07:56:54;;;;;;;8.30;2.70;;;22.00;99.90;;;;;;4988807;28;20398;-63
2022/05/12 07:59:20;;;;;;;6.25;2.58;;;22.30;99.90;;;;;;4989457;28;20394;-62
2022/05/12 08:01:46;;;;;;;6.35;2.20;;;22.40;99.90;;;;;;4988217;28;20391;-62
2022/05/12 08:04:12;;;;;;;6.95;2.85;;;22.80;99.90;;;;;;4989415;28;20921;-63
2022/05/12 08:06:43;;;;;;;6.40;3.00;;;23.00;99.90;;;;;;4988813;28;20406;-63
2022/05/12 08:09:09;;;;;;;7.07;2.50;;;23.00;99.90;;;;;;4989414;28;20911;-63
2022/05/12 08:11:34;;;;;;;7.38;3.10;;;23.70;99.90;;;;;;4988698;28;20386;-59
2022/05/12 08:14:00;;;;;;;5.70;2.30;;;24.20;99.90;;;;;;4980531;28;20858;-62
2022/05/12 08:16:26;;;;;;;6.05;2.33;;;26.90;99.90;;;;;;4970363;28;20794;-63
2022/05/12 08:18:52;;;;;;;6.40;2.63;;;27.40;99.90;;;;;;4969238;28;20822;-63
2022/05/12 08:21:19;;;;;;;6.30;2.60;;;27.70;99.90;;;;;;4968857;28;20483;-62
2022/05/12 08:23:47;;;;;;;6.50;2.90;;;27.70;99.90;;;;;;4986490;28;20494;-62
2022/05/12 08:26:12;;;;;;;8.77;2.30;;;28.90;99.90;;;;;;4989997;28;20394;-63
2022/05/12 08:28:40;;;;;;;6.95;2.83;;;28.40;99.90;;;;;;4988617;28;20460;-62
2022/05/12 08:31:06;;;;;;;11.83;2.57;;;28.90;99.90;;;;;;4989279;28;20765;-63
2022/05/12 08:33:33;;;;;;;7.50;2.58;;;29.50;99.90;;;;;;4989384;28;20466;-59
2022/05/12 08:35:59;;;;;;;5.70;2.97;;;29.10;99.90;;;;;;4989136;28;20389;-62
2022/05/12 08:38:25;;;;;;;6.40;2.43;;;28.30;99.90;;;;;;4989394;28;20399;-62
2022/05/12 08:41:13;;;;;;;7.43;3.00;;;28.50;99.90;;;;;;4987999;28;20406;-63
2022/05/12 08:43:45;;;;;;;7.20;3.00;;;28.60;99.90;;;;;;4988022;28;20391;-62
2022/05/12 08:46:20;;;;;;;9.52;2.55;;;27.90;99.90;;;;;;4989348;28;20441;-63
2022/05/12 08:48:47;;;;;;;8.10;3.20;;;27.30;99.90;;;;;;4989176;28;20759;-63
2022/05/12 08:51:19;;;;;;;8.02;2.80;;;27.70;99.90;;;;;;4992945;28;20845;-62
2022/05/12 08:54:02;;;;;;;6.13;2.88;;;27.60;99.90;;;;;;4991721;28;20394;-63
2022/05/12 08:56:28;;;;;;;7.95;3.20;;;28.00;99.90;;;;;;4992912;28;20407;-63
2022/05/12 08:58:56;;;;;;;7.20;3.03;;;27.50;99.90;;;;;;4991863;28;20887;-62
2022/05/12 09:01:36;;;;;;;7.40;2.83;;;27.80;99.90;;;;;;4991604;28;20930;-63
2022/05/12 09:04:36;;;;;;;9.95;3.55;;;27.50;99.90;;;;;;4992144;28;20386;-63
2022/05/12 09:07:27;;;;;;;7.22;3.60;;;27.70;99.90;;;;;;4992581;28;20386;-63
2022/05/12 09:09:59;;;;;;;7.15;3.40;;;27.00;99.90;;;;;;4991548;28;20433;-63
2022/05/12 09:13:14;;;;;;;6.55;3.55;;;26.50;99.90;;;;;;4992686;28;20432;-62
2022/05/12 09:15:53;;;;;;;6.65;3.58;;;25.50;99.90;;;;;;4931214;28;20484;-63
2022/05/12 09:18:26;;;;;;;8.80;3.88;;;25.40;99.90;;;;;;4953502;28;20390;-63
2022/05/12 09:20:52;;;;;;;7.50;3.53;;;25.60;99.90;;;;;;4952126;28;20394;-64
2022/05/12 09:23:18;;;;;;;6.97;3.40;;;26.40;99.90;;;;;;4967327;28;20846;-63
2022/05/12 09:25:49;;;;;;;8.90;3.70;;;26.90;99.90;;;;;;4973739;28;20402;-63
2022/05/12 09:28:39;;;;;;;6.60;3.60;;;26.60;99.90;;;;;;4992146;28;20445;-63
2022/05/12 09:31:17;;;;;;;8.33;3.83;;;28.10;99.90;;;;;;4992248;28;20453;-63
2022/05/12 09:33:44;;;;;;;7.00;3.33;;;28.70;99.90;;;;;;4991482;28;20462;-64
2022/05/12 09:36:28;;;;;;;6.35;3.60;;;29.70;99.90;;;;;;4992033;28;20382;-64
2022/05/12 09:38:55;;;;;;;7.20;3.70;;;30.50;99.90;;;;;;4991373;28;20487;-64
2022/05/12 09:41:42;;;;;;;9.63;4.03;;;29.80;99.90;;;;;;4973499;28;20875;-62
2022/05/12 09:44:20;;;;;;;7.63;3.90;;;28.50;99.90;;;;;;4991473;28;20387;-64
2022/05/12 09:46:58;;;;;;;14.30;4.00;;;28.30;99.90;;;;;;4991185;28;20379;-65
2022/05/12 09:49:29;;;;;;;6.57;3.60;;;28.70;99.90;;;;;;4991802;28;20422;-64
2022/05/12 09:51:54;;;;;;;9.35;3.95;;;28.10;99.90;;;;;;4991353;28;20477;-63
2022/05/12 09:54:28;;;;;;;9.70;4.07;;;28.10;99.90;;;;;;4991699;28;20812;-64
2022/05/12 09:57:14;;;;;;;8.07;4.00;;;28.30;99.90;;;;;;4991180;28;21048;-63
2022/05/12 09:59:55;;;;;;;8.18;3.72;;;27.90;99.90;;;;;;4990733;28;20399;-64
2022/05/12 10:07:53;;;;;;;9.90;3.80;;;28.40;99.90;;;;;;4990459;28;20394;-63
2022/05/12 10:08:21;;;;;;;8.90;4.10;;;28.40;99.90;;;;;;4991542;28;20922;-64
2022/05/12 10:10:53;;;;;;;7.70;3.55;;;28.20;99.90;;;;;;4991056;28;20910;-64
2022/05/12 10:13:43;;;;;;;10.33;4.20;;;28.40;99.90;;;;;;4988053;28;20459;-64
2022/05/12 10:16:11;;;;;;;7.43;3.90;;;28.20;99.90;;;;;;4972751;28;20380;-63
2022/05/12 10:18:47;;;;;;;7.68;4.05;;;28.20;99.90;;;;;;4971340;28;20380;-61
2022/05/12 10:21:34;;;;;;;13.80;4.30;;;29.20;99.90;;;;;;4972058;28;20420;-64
2022/05/12 10:24:11;;;;;;;8.27;3.75;;;29.30;99.90;;;;;;4971363;28;20875;-64
2022/05/12 10:26:51;;;;;;;7.40;4.00;;;29.40;99.90;;;;;;4971021;28;20484;-64
2022/05/12 10:29:40;;;;;;;7.32;4.00;;;29.30;99.90;;;;;;4971911;28;20435;-64
2022/05/12 10:32:22;;;;;;;10.95;4.25;;;28.70;99.90;;;;;;4972612;28;20483;-64
2022/05/12 10:35:05;;;;;;;8.55;4.35;;;28.30;99.90;;;;;;4971814;28;20388;-63
2022/05/12 10:37:40;;;;;;;7.90;4.10;;;27.80;99.90;;;;;;4971327;28;20482;-63
2022/05/12 10:40:08;;;;;;;7.40;4.30;;;27.60;99.90;;;;;;4971421;28;20424;-63
2022/05/12 10:43:08;;;;;;;8.75;4.53;;;27.10;99.90;;;;;;4970957;28;20431;-59
2022/05/12 10:45:54;;;;;;;10.40;4.70;;;26.70;99.90;;;;;;4971268;28;20384;-59
2022/05/12 10:48:23;;;;;;;7.60;4.00;;;27.00;99.90;;;;;;4971281;28;20403;-63
2022/05/12 10:51:02;;;;;;;9.20;4.10;;;26.90;99.90;;;;;;4970675;28;20396;-64
2022/05/12 10:54:00;;;;;;;9.13;4.50;;;27.50;99.90;;;;;;4971011;28;20459;-63
2022/05/12 10:56:43;;;;;;;11.32;3.60;;;27.70;99.90;;;;;;4969864;28;20400;-64
2022/05/12 10:59:28;;;;;;;7.80;4.60;;;27.80;99.90;;;;;;4971289;28;20864;-64
2022/05/12 11:02:16;;;;;;;8.90;4.18;;;27.50;99.90;;;;;;4950907;29;20395;-63
2022/05/12 11:05:09;;;;;;;7.05;3.60;;;27.20;99.90;;;;;;4951022;28;20389;-64
2022/05/12 11:07:50;;;;;;;8.48;4.10;;;27.20;99.90;;;;;;4951195;29;20436;-60
2022/05/12 11:10:34;;;;;;;8.82;4.10;;;26.70;99.90;;;;;;4951734;29;20461;-64
2022/05/12 11:13:08;;;;;;;9.73;4.28;;;26.90;99.90;;;;;;4951161;28;20446;-63
2022/05/12 11:15:55;;;;;;;7.50;4.40;;;27.10;99.90;;;;;;4969772;28;20379;-59
2022/05/12 11:18:40;;;;;;;9.02;4.35;;;27.00;99.90;;;;;;4970937;28;20439;-64
2022/05/12 11:21:23;;;;;;;9.50;4.43;;;27.10;99.90;;;;;;4970761;28;20471;-63
2022/05/12 11:24:16;;;;;;;8.52;4.30;;;26.60;99.90;;;;;;4970168;28;20392;-62
2022/05/12 11:26:51;;;;;;;8.83;4.40;;;26.60;99.90;;;;;;4969954;28;20392;-63
2022/05/12 11:29:41;;;;;;;7.97;4.18;;;26.60;99.90;;;;;;4970463;28;20944;-64
2022/05/12 11:32:34;;;;;;;8.45;3.70;;;26.30;99.90;;;;;;4950502;29;20725;-64
2022/05/12 11:35:28;;;;;;;8.63;3.80;;;26.40;99.90;;;;;;4950354;29;20427;-65
2022/05/12 11:38:03;;;;;;;10.57;4.17;;;26.70;99.90;;;;;;4947857;29;20414;-64
2022/05/12 11:40:44;;;;;;;6.95;3.92;;;26.80;99.90;;;;;;4951427;29;20421;-64
2022/05/12 11:46:55;;;;;;;8.43;4.07;;;26.20;99.90;;;;;;4951169;29;20393;-64
2022/05/12 11:49:31;;;;;;;8.00;4.30;;;26.00;99.90;;;;;;4950798;29;20414;-64
2022/05/12 11:52:15;;;;;;;7.40;4.30;;;26.00;99.90;;;;;;4949977;29;20433;-63
2022/05/12 11:54:53;;;;;;;8.88;4.70;;;26.20;99.90;;;;;;4949859;29;20936;-64
2022/05/12 11:57:41;;;;;;;7.80;3.75;;;26.60;99.90;;;;;;4950621;29;20394;-62
2022/05/12 12:00:10;;;;;;;10.73;4.40;;;27.30;99.90;;;;;;4956180;28;20392;-64
2022/05/12 12:02:40;;;;;;;9.00;4.28;;;27.50;99.90;;;;;;4952186;28;20807;-59
2022/05/12 12:05:09;;;;;;;9.30;4.40;;;27.20;99.90;;;;;;4970304;28;20464;-63
2022/05/12 12:07:35;;;;;;;7.35;3.90;;;26.60;99.90;;;;;;4969889;28;20846;-60
2022/05/12 12:10:22;;;;;;;8.70;4.30;;;26.50;99.90;;;;;;4988151;28;20517;-64
2022/05/12 12:12:53;;;;;;;8.00;4.05;;;26.90;99.90;;;;;;4988540;28;20502;-65
2022/05/12 12:15:27;;;;;;;8.20;4.10;;;27.20;99.90;;;;;;4989811;28;20449;-64
2022/05/12 12:17:54;;;;;;;8.10;3.90;;;27.30;99.90;;;;;;4988988;28;20387;-64
2022/05/12 12:20:29;;;;;;;8.50;4.28;;;27.40;99.90;;;;;;4989714;28;20391;-64
2022/05/12 12:22:57;;;;;;;7.05;3.85;;;27.80;99.90;;;;;;4989016;28;20440;-64
2022/05/12 12:25:40;;;;;;;6.97;4.10;;;27.60;99.90;;;;;;4992807;28;20379;-65
2022/05/12 12:28:36;;;;;;;8.23;4.10;;;27.00;99.90;;;;;;4993551;28;20706;-63
2022/05/12 12:31:39;;;;;;;8.27;3.92;;;26.80;99.90;;;;;;4993184;28;20489;-64
2022/05/12 12:34:11;;;;;;;8.65;4.00;;;27.00;99.90;;;;;;4993800;28;20402;-64
2022/05/12 12:36:36;;;;;;;7.00;3.78;;;27.40;99.90;;;;;;4992304;28;20398;-60
2022/05/12 12:39:09;;;;;;;7.80;4.25;;;27.30;99.90;;;;;;4993440;28;20497;-65
2022/05/12 12:41:43;;;;;;;8.10;4.07;;;27.10;99.90;;;;;;4992907;28;20497;-58
2022/05/12 12:44:18;;;;;;;8.10;4.30;;;27.00;99.90;;;;;;4993018;28;20382;-65
2022/05/12 12:47:05;;;;;;;6.85;4.00;;;27.00;99.90;;;;;;4992350;28;20449;-66
2022/05/12 12:49:42;;;;;;;7.22;4.20;;;27.30;99.90;;;;;;4993135;28;20417;-66
2022/05/12 12:52:10;;;;;;;7.40;4.00;;;27.70;99.90;;;;;;4992770;28;20398;-65
2022/05/12 12:57:38;;;;;;;10.90;4.22;;;27.40;99.90;;;;;;4992756;28;20405;-65
2022/05/12 13:00:09;;;;;;;9.68;4.20;;;27.10;99.90;;;;;;4992942;28;20394;-65
2022/05/12 13:02:41;;;;;;;8.97;4.10;;;27.10;99.90;;;;;;4992568;28;20387;-58
2022/05/12 13:05:11;;;;;;;9.07;4.20;;;27.20;99.90;;;;;;4993004;28;20886;-64
2022/05/12 13:07:39;;;;;;;6.75;3.92;;;27.80;99.90;;;;;;4992074;28;20488;-58
2022/05/12 13:10:12;;;;;;;7.82;4.60;;;27.80;99.90;;;;;;4992773;28;20497;-65
2022/05/12 13:12:37;;;;;;;10.27;4.82;;;27.70;99.90;;;;;;4991502;28;20852;-62
2022/05/12 13:15:17;;;;;;;7.78;4.18;;;28.00;99.90;;;;;;4992561;28;20469;-65
2022/05/12 13:17:49;;;;;;;8.48;4.35;;;27.80;99.90;;;;;;4991792;28;20382;-65
2022/05/12 13:20:24;;;;;;;8.88;4.80;;;27.30;99.90;;;;;;4992613;28;20887;-62
2022/05/12 13:23:04;;;;;;;8.37;4.43;;;27.50;99.90;;;;;;4991743;28;20406;-65